createdAt,value
2022-12-08T00:01:41.367Z,16.60
2022-12-08T00:04:12.046Z,17.00
2022-12-08T00:07:02.615Z,16.47
2022-12-08T00:09:39.672Z,17.00
2022-12-08T00:12:09.944Z,16.60
2022-12-08T00:14:48.051Z,16.93
2022-12-08T00:17:17.700Z,17.10
2022-12-08T00:19:45.452Z,17.03
2022-12-08T00:22:15.230Z,15.70
2022-12-08T00:24:47.403Z,15.93
2022-12-08T00:27:16.691Z,16.70
2022-12-08T00:29:45.480Z,15.97
2022-12-08T00:32:15.844Z,15.80
2022-12-08T00:34:43.442Z,16.67
2022-12-08T00:37:10.989Z,15.60
2022-12-08T00:39:38.570Z,15.47
2022-12-08T00:42:13.069Z,15.70
2022-12-08T00:44:44.472Z,15.97
2022-12-08T00:47:13.709Z,15.97
2022-12-08T00:49:41.718Z,14.83
2022-12-08T00:52:10.238Z,16.13
2022-12-08T00:54:38.006Z,14.23
2022-12-08T00:57:08.322Z,14.97
2022-12-08T00:59:35.999Z,13.70
2022-12-08T01:02:04.494Z,12.60
2022-12-08T01:04:32.236Z,12.27
2022-12-08T01:07:05.344Z,12.37
2022-12-08T01:09:35.844Z,11.83
2022-12-08T01:12:03.653Z,12.73
2022-12-08T01:14:33.448Z,13.43
2022-12-08T01:17:01.219Z,12.00
2022-12-08T01:19:29.131Z,13.33
2022-12-08T01:21:56.652Z,11.67
2022-12-08T01:24:24.337Z,12.43
2022-12-08T01:26:52.287Z,11.50
2022-12-08T01:29:20.179Z,12.23
2022-12-08T01:31:47.666Z,11.73
2022-12-08T01:34:15.764Z,11.90
2022-12-08T01:36:45.028Z,10.97
2022-12-08T01:39:17.519Z,12.10
2022-12-08T01:41:46.822Z,10.87
2022-12-08T01:44:14.016Z,10.90
2022-12-08T01:46:43.946Z,11.00
2022-12-08T01:49:28.451Z,11.93
2022-12-08T01:52:20.245Z,11.17
2022-12-08T01:54:56.300Z,12.70
2022-12-08T01:57:41.887Z,12.10
2022-12-08T02:00:12.546Z,13.43
2022-12-08T02:02:58.204Z,12.03
2022-12-08T02:05:33.656Z,13.47
2022-12-08T02:08:04.975Z,12.23
2022-12-08T02:10:37.915Z,13.23
2022-12-08T02:13:08.329Z,13.87
2022-12-08T02:15:47.707Z,12.83
2022-12-08T02:18:25.252Z,12.80
2022-12-08T02:21:12.181Z,12.73
2022-12-08T02:23:59.594Z,12.83
2022-12-08T02:26:55.807Z,12.97
2022-12-08T02:29:35.022Z,13.17
2022-12-08T02:32:48.253Z,12.37
2022-12-08T02:35:27.854Z,13.80
2022-12-08T02:38:27.120Z,14.00
2022-12-08T02:41:01.059Z,13.47
2022-12-08T02:43:47.602Z,12.43
2022-12-08T02:46:24.114Z,13.57
2022-12-08T02:48:52.876Z,13.97
2022-12-08T02:51:20.556Z,14.17
2022-12-08T02:53:48.866Z,16.17
2022-12-08T02:56:46.987Z,14.27
2022-12-08T02:59:30.912Z,16.10
2022-12-08T03:02:27.246Z,15.47
2022-12-08T03:05:06.863Z,16.90
2022-12-08T03:07:43.976Z,13.57
2022-12-08T03:10:23.826Z,17.37
2022-12-08T03:13:01.465Z,19.40
2022-12-08T03:15:31.219Z,14.03
2022-12-08T03:18:01.117Z,14.27
2022-12-08T03:20:30.072Z,13.63
2022-12-08T03:23:00.156Z,14.13
2022-12-08T03:25:32.142Z,13.53
2022-12-08T03:28:00.434Z,12.50
2022-12-08T03:30:32.455Z,12.93
2022-12-08T03:33:27.090Z,14.17
2022-12-08T03:35:55.827Z,14.50
2022-12-08T03:38:23.314Z,14.57
2022-12-08T03:41:10.502Z,12.77
2022-12-08T03:43:37.886Z,12.37
2022-12-08T03:46:05.127Z,12.23
2022-12-08T03:48:32.456Z,13.23
2022-12-08T03:50:59.622Z,13.13
2022-12-08T03:53:26.875Z,13.60
2022-12-08T03:55:54.813Z,12.97
2022-12-08T03:58:21.992Z,13.87
2022-12-08T04:00:49.126Z,13.93
2022-12-08T04:03:16.325Z,12.57
2022-12-08T04:05:43.492Z,13.20
2022-12-08T04:08:10.711Z,13.97
2022-12-08T04:10:37.959Z,13.03
2022-12-08T04:13:05.126Z,13.83
2022-12-08T04:15:32.373Z,13.73
2022-12-08T04:17:59.567Z,13.63
2022-12-08T04:20:26.696Z,13.53
2022-12-08T04:22:53.921Z,13.93
2022-12-08T04:25:21.274Z,15.27
2022-12-08T04:27:48.607Z,14.93
2022-12-08T04:30:15.775Z,13.77
2022-12-08T04:32:47.342Z,14.53
2022-12-08T04:35:14.814Z,13.97
2022-12-08T04:37:43.453Z,13.90
2022-12-08T04:40:11.930Z,15.07
2022-12-08T04:42:39.360Z,15.67
2022-12-08T04:45:07.166Z,15.00
2022-12-08T04:47:34.453Z,13.33
2022-12-08T04:50:02.062Z,13.40
2022-12-08T04:52:29.497Z,14.27
2022-12-08T04:54:56.532Z,14.20
2022-12-08T04:57:23.973Z,13.27
2022-12-08T04:59:51.059Z,13.90
2022-12-08T05:02:18.436Z,13.73
2022-12-08T05:04:45.622Z,14.83
2022-12-08T05:07:12.922Z,14.57
2022-12-08T05:09:40.018Z,13.63
2022-12-08T05:12:07.354Z,13.97
2022-12-08T05:14:34.782Z,14.17
2022-12-08T05:17:07.796Z,14.87
2022-12-08T05:19:36.696Z,15.07
2022-12-08T05:22:04.001Z,13.93
2022-12-08T05:24:31.161Z,13.27
2022-12-08T05:26:58.264Z,13.90
2022-12-08T05:29:25.539Z,14.37
2022-12-08T05:31:52.766Z,14.43
2022-12-08T05:34:23.064Z,13.43
2022-12-08T05:36:50.149Z,14.23
2022-12-08T05:39:17.251Z,14.03
2022-12-08T05:41:44.778Z,13.77
2022-12-08T05:44:12.001Z,14.13
2022-12-08T05:46:39.193Z,14.07
2022-12-08T05:49:06.418Z,14.57
2022-12-08T05:51:33.678Z,14.83
2022-12-08T05:54:00.842Z,14.03
2022-12-08T05:56:27.956Z,15.03
2022-12-08T05:58:55.215Z,13.53
2022-12-08T06:01:28.136Z,13.10
2022-12-08T06:03:57.173Z,12.77
2022-12-08T06:06:25.671Z,13.90
2022-12-08T06:08:53.289Z,13.90
2022-12-08T06:11:29.295Z,13.83
2022-12-08T06:13:57.277Z,13.47
2022-12-08T06:16:26.414Z,13.17
2022-12-08T06:18:54.375Z,13.60
2022-12-08T06:21:21.709Z,13.03
2022-12-08T06:23:50.641Z,13.27
2022-12-08T06:26:18.323Z,12.17
2022-12-08T06:28:45.623Z,13.60
2022-12-08T06:31:18.259Z,13.40
2022-12-08T06:33:45.762Z,13.27
2022-12-08T06:36:14.581Z,13.30
2022-12-08T06:38:43.636Z,12.57
2022-12-08T06:41:12.504Z,12.23
2022-12-08T06:43:40.999Z,13.00
2022-12-08T06:46:11.116Z,13.40
2022-12-08T06:48:38.809Z,13.03
2022-12-08T06:51:10.788Z,13.43
2022-12-08T06:53:38.915Z,16.30
2022-12-08T06:56:06.672Z,15.27
2022-12-08T06:58:33.944Z,17.33
2022-12-08T07:01:13.650Z,17.47
2022-12-08T07:03:43.570Z,16.67
2022-12-08T07:06:16.201Z,15.37
2022-12-08T07:08:43.135Z,15.17
2022-12-08T07:11:15.298Z,17.10
2022-12-08T07:13:45.279Z,16.23
2022-12-08T07:16:13.255Z,13.20
2022-12-08T07:18:43.080Z,13.17
2022-12-08T07:21:13.358Z,14.40
2022-12-08T07:23:40.759Z,12.33
2022-12-08T07:26:10.646Z,12.10
2022-12-08T07:28:39.378Z,13.53
2022-12-08T07:31:08.948Z,13.60
2022-12-08T07:33:36.281Z,12.63
2022-12-08T07:36:05.405Z,12.83
2022-12-08T07:38:32.439Z,13.63
2022-12-08T07:41:00.094Z,12.03
2022-12-08T07:43:27.192Z,12.63
2022-12-08T07:45:54.955Z,12.40
2022-12-08T07:48:22.178Z,13.77
2022-12-08T07:50:49.559Z,12.33
2022-12-08T07:53:17.101Z,12.93
2022-12-08T07:55:44.796Z,13.03
2022-12-08T07:58:12.240Z,12.87
2022-12-08T08:00:39.467Z,12.10
2022-12-08T08:03:09.211Z,14.23
2022-12-08T08:05:39.159Z,17.37
2022-12-08T08:08:06.517Z,14.07
2022-12-08T08:10:33.593Z,22.47
2022-12-08T08:13:00.998Z,24.20
2022-12-08T08:15:28.429Z,20.20
2022-12-08T08:17:56.134Z,19.97
2022-12-08T08:20:23.419Z,15.70
2022-12-08T08:22:51.547Z,12.60
2022-12-08T08:25:23.967Z,13.07
2022-12-08T08:27:51.741Z,12.17
2022-12-08T08:30:20.921Z,12.30
2022-12-08T08:32:50.014Z,13.30
2022-12-08T08:35:17.176Z,13.97
2022-12-08T08:37:48.855Z,15.37
2022-12-08T08:40:17.742Z,13.73
2022-12-08T08:42:45.151Z,12.93
2022-12-08T08:45:12.168Z,13.07
2022-12-08T08:47:39.415Z,12.70
2022-12-08T08:50:08.037Z,14.43
2022-12-08T08:52:35.493Z,13.37
2022-12-08T08:55:03.137Z,13.27
2022-12-08T08:57:30.517Z,12.83
2022-12-08T08:59:57.630Z,12.60
2022-12-08T09:02:25.552Z,12.50
2022-12-08T09:04:52.979Z,11.87
2022-12-08T09:07:20.149Z,12.93
2022-12-08T09:09:47.310Z,12.83
2022-12-08T09:12:14.476Z,12.50
2022-12-08T09:14:41.611Z,12.63
2022-12-08T09:17:09.356Z,11.87
2022-12-08T09:19:36.625Z,11.77
2022-12-08T09:22:03.960Z,11.53
2022-12-08T09:24:31.076Z,11.80
2022-12-08T09:26:58.262Z,11.73
2022-12-08T09:29:28.681Z,12.33
2022-12-08T09:31:58.442Z,11.37
2022-12-08T09:34:25.549Z,12.57
2022-12-08T09:36:52.715Z,12.73
2022-12-08T09:39:19.830Z,14.63
2022-12-08T09:41:51.044Z,13.57
2022-12-08T09:44:32.942Z,18.60
2022-12-08T09:47:01.917Z,14.40
2022-12-08T09:49:41.942Z,19.73
2022-12-08T09:52:21.837Z,12.47
2022-12-08T09:54:48.933Z,12.50
2022-12-08T09:57:19.641Z,12.73
2022-12-08T09:59:53.064Z,14.07
2022-12-08T10:02:30.727Z,11.50
2022-12-08T10:04:59.250Z,12.30
2022-12-08T10:07:48.405Z,11.13
2022-12-08T10:10:47.565Z,11.13
2022-12-08T10:13:27.571Z,9.43
2022-12-08T10:16:04.080Z,10.13
2022-12-08T10:18:34.189Z,9.90
2022-12-08T10:21:17.493Z,12.00
2022-12-08T10:23:51.559Z,11.97
2022-12-08T10:26:21.765Z,9.67
2022-12-08T10:28:49.560Z,10.50
2022-12-08T10:31:24.749Z,9.50
2022-12-08T10:34:13.480Z,9.23
2022-12-08T10:36:56.433Z,9.43
2022-12-08T10:39:30.686Z,10.20
2022-12-08T10:42:13.825Z,8.87
2022-12-08T10:45:04.264Z,9.60
2022-12-08T10:47:37.323Z,7.70
2022-12-08T10:50:07.792Z,8.07
2022-12-08T10:52:39.977Z,7.40
2022-12-08T10:55:15.681Z,7.30
2022-12-08T10:57:42.751Z,7.90
2022-12-08T11:00:27.113Z,7.33
2022-12-08T11:03:03.502Z,7.70
2022-12-08T11:05:35.722Z,6.93
2022-12-08T11:08:05.150Z,7.63
2022-12-08T11:10:43.094Z,7.03
2022-12-08T11:13:26.697Z,6.53
2022-12-08T11:15:55.819Z,6.67
2022-12-08T11:18:28.278Z,7.20
2022-12-08T11:21:07.981Z,7.10
2022-12-08T11:23:37.801Z,6.43
2022-12-08T11:26:15.189Z,6.70
2022-12-08T11:28:42.338Z,7.10
2022-12-08T11:31:40.489Z,6.47
2022-12-08T11:34:15.188Z,6.17
2022-12-08T11:36:42.393Z,7.00
2022-12-08T11:39:12.934Z,6.50
2022-12-08T11:41:44.304Z,6.17
2022-12-08T11:44:26.957Z,6.57
2022-12-08T11:47:02.988Z,5.90
2022-12-08T11:49:42.069Z,5.90
2022-12-08T11:52:27.977Z,6.17
2022-12-08T11:55:19.265Z,6.20
2022-12-08T11:57:46.371Z,6.57
2022-12-08T12:00:17.531Z,7.23
2022-12-08T12:02:50.818Z,6.67
2022-12-08T12:05:39.813Z,6.27
2022-12-08T12:08:51.226Z,6.10
2022-12-08T12:11:41.224Z,6.17
2022-12-08T12:14:33.560Z,6.37
2022-12-08T12:17:06.279Z,8.17
2022-12-08T12:19:39.392Z,6.83
2022-12-08T12:22:16.300Z,5.83
2022-12-08T12:24:46.210Z,6.03
2022-12-08T12:27:57.290Z,6.27
2022-12-08T12:30:27.616Z,5.67
2022-12-08T12:32:59.355Z,6.03
2022-12-08T12:35:41.875Z,6.57
2022-12-08T12:38:43.359Z,5.60
2022-12-08T12:41:13.385Z,5.70
2022-12-08T12:43:40.482Z,5.87
2022-12-08T12:46:25.865Z,5.97
2022-12-08T12:48:53.073Z,6.10
2022-12-08T12:51:45.698Z,7.53
2022-12-08T12:54:24.671Z,6.50
2022-12-08T12:57:20.848Z,6.57
2022-12-08T13:00:07.442Z,5.83
2022-12-08T13:02:45.128Z,6.10
2022-12-08T13:05:21.441Z,6.77
2022-12-08T13:08:02.679Z,5.63
2022-12-08T13:10:34.658Z,9.20
2022-12-08T13:13:07.565Z,8.00
2022-12-08T13:15:43.261Z,8.67
2022-12-08T13:18:29.810Z,12.40
2022-12-08T13:21:06.020Z,15.10
2022-12-08T13:23:39.031Z,29.87
2022-12-08T13:26:14.921Z,16.63
2022-12-08T13:29:04.307Z,13.57
2022-12-08T13:31:46.798Z,9.73
2022-12-08T13:34:24.500Z,5.93
2022-12-08T13:37:10.837Z,5.17
2022-12-08T13:39:40.846Z,4.83
2022-12-08T13:42:50.157Z,5.77
2022-12-08T13:46:12.200Z,4.57
2022-12-08T13:48:56.215Z,4.20
2022-12-08T13:53:22.466Z,3.60
2022-12-08T13:55:49.789Z,3.97
2022-12-08T13:57:33.507Z,4.17
2022-12-08T14:00:03.878Z,4.67
2022-12-08T14:02:42.252Z,3.40
2022-12-08T14:05:19.552Z,3.57
2022-12-08T14:07:56.307Z,3.57
2022-12-08T14:10:28.444Z,20.13
2022-12-08T14:13:02.988Z,8.20
2022-12-08T14:15:37.884Z,4.00
2022-12-08T14:18:07.244Z,6.73
2022-12-08T14:20:57.879Z,4.73
2022-12-08T14:23:24.208Z,4.83
2022-12-08T14:25:51.166Z,4.63
2022-12-08T14:28:18.444Z,4.27
2022-12-08T14:30:45.482Z,3.50
2022-12-08T14:33:19.240Z,5.00
2022-12-08T14:35:55.698Z,5.27
2022-12-08T14:38:25.839Z,11.97
2022-12-08T14:41:07.476Z,5.87
2022-12-08T14:43:35.061Z,4.63
2022-12-08T14:46:22.955Z,4.60
2022-12-08T14:48:50.082Z,5.43
2022-12-08T14:51:20.422Z,5.27
2022-12-08T14:53:54.703Z,5.20
2022-12-08T14:56:37.013Z,3.87
2022-12-08T14:59:19.136Z,4.17
2022-12-08T15:01:48.049Z,4.90
2022-12-08T15:04:17.981Z,15.63
2022-12-08T15:07:06.307Z,4.63
2022-12-08T15:09:38.342Z,8.30
2022-12-08T15:12:29.767Z,6.27
2022-12-08T15:14:58.145Z,12.80
2022-12-08T15:17:40.095Z,8.90
2022-12-08T15:20:30.196Z,7.67
2022-12-08T15:23:02.036Z,6.70
2022-12-08T15:25:29.267Z,9.13
2022-12-08T15:27:58.890Z,7.03
2022-12-08T15:30:26.676Z,6.73
2022-12-08T15:32:56.012Z,7.27
2022-12-08T15:35:23.017Z,11.87
2022-12-08T15:37:50.020Z,8.60
2022-12-08T15:40:23.030Z,13.93
2022-12-08T15:42:50.064Z,12.37
2022-12-08T15:45:17.746Z,12.47
2022-12-08T15:47:45.998Z,4.83
2022-12-08T15:50:21.355Z,4.87
2022-12-08T15:52:49.462Z,3.97
2022-12-08T15:55:21.378Z,4.27
2022-12-08T15:58:51.234Z,3.93
2022-12-08T16:00:52.607Z,3.27
2022-12-08T16:09:18.348Z,3.70
2022-12-08T16:12:07.224Z,4.13
2022-12-08T16:17:23.017Z,4.40
2022-12-08T16:19:50.066Z,3.70
2022-12-08T16:25:20.332Z,3.90
2022-12-08T16:28:01.179Z,3.70
2022-12-08T16:30:28.683Z,3.87
2022-12-08T16:32:55.630Z,4.00
2022-12-08T16:35:22.714Z,3.60
2022-12-08T16:37:49.675Z,3.37
2022-12-08T16:40:16.744Z,3.87
2022-12-08T16:42:44.129Z,4.07
2022-12-08T16:45:30.507Z,3.77
2022-12-08T16:48:00.303Z,4.30
2022-12-08T16:50:32.259Z,4.80
2022-12-08T16:53:05.523Z,3.63
2022-12-08T16:55:33.376Z,4.30
2022-12-08T16:58:00.519Z,4.40
2022-12-08T17:00:29.307Z,4.00
2022-12-08T17:02:56.863Z,4.17
2022-12-08T17:05:25.537Z,4.50
2022-12-08T17:07:53.484Z,4.07
2022-12-08T17:10:23.291Z,4.10
2022-12-08T17:12:50.953Z,4.70
2022-12-08T17:15:20.872Z,4.23
2022-12-08T17:17:49.497Z,3.80
2022-12-08T17:20:19.450Z,5.27
2022-12-08T17:22:47.646Z,4.20
2022-12-08T17:25:15.047Z,5.30
2022-12-08T17:27:42.649Z,4.87
2022-12-08T17:30:15.009Z,4.37
2022-12-08T17:32:43.229Z,4.13
2022-12-08T17:35:11.121Z,4.83
2022-12-08T17:37:38.269Z,4.00
2022-12-08T17:40:06.359Z,4.93
2022-12-08T17:42:33.663Z,5.07
2022-12-08T17:45:00.825Z,4.73
2022-12-08T17:47:27.905Z,4.90
2022-12-08T17:49:56.204Z,4.60
2022-12-08T17:52:23.474Z,4.63
2022-12-08T17:54:50.489Z,4.80
2022-12-08T17:57:17.471Z,4.83
2022-12-08T17:59:44.538Z,4.80
2022-12-08T18:02:15.248Z,4.87
2022-12-08T18:04:42.418Z,5.67
2022-12-08T18:07:09.458Z,4.93
2022-12-08T18:09:36.639Z,5.17
2022-12-08T18:12:03.818Z,6.20
2022-12-08T18:14:30.985Z,6.13
2022-12-08T18:16:58.184Z,6.90
2022-12-08T18:19:26.343Z,6.30
2022-12-08T18:21:53.280Z,6.57
2022-12-08T18:24:23.353Z,7.13
2022-12-08T18:26:52.588Z,7.50
2022-12-08T18:29:21.289Z,7.47
2022-12-08T18:31:48.362Z,8.00
2022-12-08T18:34:15.590Z,6.97
2022-12-08T18:36:42.839Z,7.47
2022-12-08T18:39:20.374Z,7.63
2022-12-08T18:41:47.339Z,7.80
2022-12-08T18:44:14.325Z,7.33
2022-12-08T18:46:41.352Z,7.50
2022-12-08T18:49:12.642Z,7.80
2022-12-08T18:51:39.835Z,7.40
2022-12-08T18:54:06.969Z,8.43
2022-12-08T18:56:35.380Z,8.67
2022-12-08T18:59:08.643Z,8.07
2022-12-08T19:01:38.156Z,8.50
2022-12-08T19:06:56.244Z,8.73
2022-12-08T19:09:24.598Z,10.00
2022-12-08T19:11:51.631Z,9.83
2022-12-08T19:14:22.688Z,9.37
2022-12-08T19:16:54.488Z,7.97
2022-12-08T19:19:21.856Z,9.37
2022-12-08T19:21:48.881Z,8.73
2022-12-08T19:24:16.108Z,8.90
2022-12-08T19:26:43.346Z,8.90
2022-12-08T19:29:11.439Z,10.13
2022-12-08T19:31:39.080Z,9.17
2022-12-08T19:34:06.761Z,9.20
2022-12-08T19:36:35.708Z,8.87
2022-12-08T19:39:23.121Z,8.97
2022-12-08T19:42:09.151Z,8.93
2022-12-08T19:44:54.160Z,9.13
2022-12-08T19:47:26.112Z,8.87
2022-12-08T19:49:55.189Z,8.40
2022-12-08T19:52:22.442Z,9.50
2022-12-08T19:54:49.519Z,8.77
2022-12-08T19:57:16.446Z,9.87
2022-12-08T19:59:43.491Z,10.20
2022-12-08T20:02:11.582Z,9.33
2022-12-08T20:04:38.728Z,10.20
2022-12-08T20:07:05.697Z,10.10
2022-12-08T20:09:32.718Z,9.00
2022-12-08T20:11:59.632Z,9.63
2022-12-08T20:14:26.637Z,10.02
2022-12-08T20:16:53.768Z,9.60
2022-12-08T20:19:21.435Z,10.30
2022-12-08T20:21:48.958Z,10.37
2022-12-08T20:24:17.285Z,9.47
2022-12-08T20:26:44.263Z,8.87
2022-12-08T20:29:11.914Z,10.67
2022-12-08T20:31:38.859Z,11.63
2022-12-08T20:34:06.036Z,10.67
2022-12-08T20:36:33.212Z,10.20
2022-12-08T20:39:00.367Z,11.60
2022-12-08T20:41:27.416Z,11.47
2022-12-08T20:43:54.573Z,11.63
2022-12-08T20:46:21.984Z,11.60
2022-12-08T20:48:49.451Z,11.00
2022-12-08T20:51:19.481Z,10.70
2022-12-08T20:53:47.456Z,11.43
2022-12-08T20:56:20.255Z,11.00
2022-12-08T20:58:47.935Z,11.27
2022-12-08T21:01:19.655Z,10.63
2022-12-08T21:03:48.139Z,10.93
2022-12-08T21:06:16.340Z,11.37
2022-12-08T21:08:44.369Z,10.70
2022-12-08T21:11:11.991Z,11.63
2022-12-08T21:13:39.425Z,11.63
2022-12-08T21:16:09.312Z,12.27
2022-12-08T21:18:40.016Z,12.27
2022-12-08T21:21:14.303Z,11.17
2022-12-08T21:23:45.100Z,11.60
2022-12-08T21:26:21.153Z,11.90
2022-12-08T21:28:48.271Z,11.57
2022-12-08T21:31:18.391Z,11.53
2022-12-08T21:33:45.772Z,11.30
2022-12-08T21:36:15.563Z,11.13
2022-12-08T21:38:43.350Z,12.30
2022-12-08T21:41:37.637Z,11.33
2022-12-08T21:44:06.314Z,11.67
2022-12-08T21:46:33.703Z,11.20
2022-12-08T21:49:00.917Z,12.47
2022-12-08T21:51:28.130Z,11.43
2022-12-08T21:53:55.083Z,12.03
2022-12-08T21:56:22.717Z,11.93
2022-12-08T21:58:49.862Z,11.57
2022-12-08T22:01:17.051Z,12.50
2022-12-08T22:03:44.213Z,11.80
2022-12-08T22:06:13.862Z,11.67
2022-12-08T22:08:42.832Z,11.60
2022-12-08T22:11:11.747Z,12.40
2022-12-08T22:13:41.272Z,11.40
2022-12-08T22:16:12.088Z,12.90
2022-12-08T22:18:39.334Z,13.10
2022-12-08T22:21:24.587Z,12.57
2022-12-08T22:23:51.960Z,13.17
2022-12-08T22:26:19.350Z,11.60
2022-12-08T22:28:46.519Z,12.13
2022-12-08T22:31:21.149Z,12.87
2022-12-08T22:33:49.620Z,11.73
2022-12-08T22:36:19.763Z,12.80
2022-12-08T22:38:47.865Z,12.63
2022-12-08T22:41:16.047Z,11.13
2022-12-08T22:43:43.876Z,12.40
2022-12-08T22:46:15.617Z,11.37
2022-12-08T22:48:42.871Z,11.60
2022-12-08T22:51:11.319Z,11.80
2022-12-08T22:53:38.876Z,12.23
2022-12-08T22:56:07.475Z,11.73
2022-12-08T22:58:35.069Z,12.40
2022-12-08T23:01:02.692Z,12.07
2022-12-08T23:03:30.253Z,12.43
2022-12-08T23:05:57.564Z,12.40
2022-12-08T23:08:24.859Z,12.20
2022-12-08T23:10:53.919Z,12.57
2022-12-08T23:13:22.023Z,12.27
2022-12-08T23:15:49.647Z,11.70
2022-12-08T23:18:19.348Z,12.97
2022-12-08T23:20:47.712Z,11.73
2022-12-08T23:23:16.535Z,11.53
2022-12-08T23:25:44.377Z,11.77
2022-12-08T23:28:11.756Z,12.33
2022-12-08T23:30:42.658Z,12.37
2022-12-08T23:33:09.875Z,12.17
2022-12-08T23:35:36.955Z,12.00
2022-12-08T23:38:04.777Z,11.57
2022-12-08T23:40:31.970Z,12.03
2022-12-08T23:42:59.160Z,11.27
2022-12-08T23:45:26.408Z,13.00
2022-12-08T23:47:53.679Z,11.93
2022-12-08T23:50:20.661Z,12.80
2022-12-08T23:52:47.768Z,12.57
2022-12-08T23:55:14.725Z,12.90
2022-12-08T23:57:41.966Z,12.80
